createdAt,value
2022-11-22T00:01:19.973Z,2.20
2022-11-22T00:03:48.014Z,2.20
2022-11-22T00:06:16.004Z,2.30
2022-11-22T00:08:44.138Z,2.40
2022-11-22T00:11:12.355Z,2.40
2022-11-22T00:13:40.542Z,2.50
2022-11-22T00:16:08.564Z,2.50
2022-11-22T00:18:38.022Z,2.40
2022-11-22T00:21:07.118Z,2.50
2022-11-22T00:23:35.393Z,2.50
2022-11-22T00:26:03.450Z,2.50
2022-11-22T00:28:31.639Z,2.60
2022-11-22T00:30:59.684Z,2.70
2022-11-22T00:33:27.762Z,2.70
2022-11-22T00:35:57.221Z,2.80
2022-11-22T00:38:25.327Z,2.80
2022-11-22T00:40:53.324Z,2.70
2022-11-22T00:43:21.805Z,2.80
2022-11-22T00:45:49.896Z,2.80
2022-11-22T00:48:18.104Z,2.70
2022-11-22T00:50:46.223Z,2.70
2022-11-22T00:53:15.738Z,2.70
2022-11-22T00:55:43.684Z,2.70
2022-11-22T00:58:12.188Z,2.70
2022-11-22T01:00:40.169Z,2.70
2022-11-22T01:03:11.316Z,2.80
2022-11-22T01:05:39.467Z,2.70
2022-11-22T01:08:08.208Z,2.80
2022-11-22T01:10:38.067Z,2.80
2022-11-22T01:13:07.215Z,2.90
2022-11-22T01:15:35.290Z,2.80
2022-11-22T01:18:03.447Z,2.90
2022-11-22T01:20:31.921Z,2.90
2022-11-22T01:22:59.939Z,3.00
2022-11-22T01:25:28.015Z,3.00
2022-11-22T01:27:57.512Z,3.10
2022-11-22T01:30:26.227Z,3.10
2022-11-22T01:32:54.438Z,3.20
2022-11-22T01:35:22.563Z,3.30
2022-11-22T01:37:50.687Z,3.30
2022-11-22T01:40:19.441Z,3.40
2022-11-22T01:42:51.915Z,3.50
2022-11-22T01:45:42.639Z,3.50
2022-11-22T01:48:24.131Z,3.60
2022-11-22T01:50:56.523Z,3.70
2022-11-22T01:53:29.531Z,3.70
2022-11-22T01:56:00.641Z,3.80
2022-11-22T01:58:31.713Z,3.90
2022-11-22T02:01:02.971Z,4.00
2022-11-22T02:03:35.146Z,4.00
2022-11-22T02:06:03.888Z,4.10
2022-11-22T02:08:39.105Z,4.20
2022-11-22T02:11:09.610Z,4.10
2022-11-22T02:13:41.824Z,4.10
2022-11-22T02:16:12.897Z,4.20
2022-11-22T02:18:41.390Z,4.30
2022-11-22T02:21:10.316Z,4.30
2022-11-22T02:23:50.965Z,4.40
2022-11-22T02:26:20.790Z,4.50
2022-11-22T02:28:50.255Z,4.50
2022-11-22T02:31:39.521Z,4.50
2022-11-22T02:34:07.857Z,4.50
2022-11-22T02:36:40.730Z,4.60
2022-11-22T02:39:09.874Z,4.70
2022-11-22T02:41:40.479Z,4.70
2022-11-22T02:44:10.400Z,4.70
2022-11-22T02:46:48.519Z,4.70
2022-11-22T02:49:21.879Z,4.80
2022-11-22T02:51:50.206Z,4.80
2022-11-22T02:54:19.478Z,4.90
2022-11-22T02:56:49.434Z,5.00
2022-11-22T02:59:17.743Z,4.90
2022-11-22T03:01:47.386Z,5.10
2022-11-22T03:04:24.763Z,5.00
2022-11-22T03:06:55.059Z,5.10
2022-11-22T03:09:23.574Z,5.10
2022-11-22T03:11:53.897Z,5.20
2022-11-22T03:14:21.947Z,5.20
2022-11-22T03:16:50.184Z,5.20
2022-11-22T03:19:18.488Z,5.20
2022-11-22T03:21:49.441Z,5.20
2022-11-22T03:24:20.144Z,5.20
2022-11-22T03:26:52.330Z,5.20
2022-11-22T03:29:21.808Z,5.20
2022-11-22T03:31:49.991Z,5.20
2022-11-22T03:34:18.137Z,5.30
2022-11-22T03:36:46.754Z,5.20
2022-11-22T03:39:14.969Z,5.20
2022-11-22T03:41:42.996Z,5.20
2022-11-22T03:44:11.137Z,5.30
2022-11-22T03:46:40.542Z,5.30
2022-11-22T03:49:08.686Z,5.40
2022-11-22T03:51:36.762Z,5.50
2022-11-22T03:54:04.967Z,5.60
2022-11-22T03:56:33.011Z,5.50
2022-11-22T03:59:01.283Z,5.50
2022-11-22T04:01:29.497Z,5.50
2022-11-22T04:03:59.043Z,5.50
2022-11-22T04:06:27.086Z,5.50
2022-11-22T04:08:55.260Z,5.50
2022-11-22T04:11:23.596Z,5.50
2022-11-22T04:14:08.882Z,5.50
2022-11-22T04:16:36.925Z,5.50
2022-11-22T04:19:06.467Z,5.50
2022-11-22T04:21:34.472Z,5.50
2022-11-22T04:24:20.987Z,5.50
2022-11-22T04:26:49.540Z,5.50
2022-11-22T04:29:20.233Z,5.40
2022-11-22T04:32:09.297Z,5.50
2022-11-22T04:34:41.575Z,5.50
2022-11-22T04:37:09.752Z,5.40
2022-11-22T04:39:37.918Z,5.40
2022-11-22T04:42:23.550Z,5.40
2022-11-22T04:44:51.571Z,5.40
2022-11-22T04:47:34.167Z,5.40
2022-11-22T04:50:04.636Z,5.40
2022-11-22T04:52:49.794Z,5.40
2022-11-22T04:55:17.817Z,5.40
2022-11-22T04:57:45.788Z,5.40
2022-11-22T05:00:14.248Z,5.50
2022-11-22T05:02:42.297Z,5.50
2022-11-22T05:05:12.345Z,5.50
2022-11-22T05:07:40.380Z,5.50
2022-11-22T05:10:09.546Z,5.40
2022-11-22T05:12:37.574Z,5.50
2022-11-22T05:15:06.383Z,5.50
2022-11-22T05:17:34.324Z,5.50
2022-11-22T05:20:02.615Z,5.40
2022-11-22T05:22:49.605Z,5.50
2022-11-22T05:25:20.215Z,5.40
2022-11-22T05:27:55.304Z,5.40
2022-11-22T05:30:23.615Z,5.40
2022-11-22T05:32:51.660Z,5.40
2022-11-22T05:35:19.648Z,5.40
2022-11-22T05:37:49.024Z,5.40
2022-11-22T05:40:17.093Z,5.50
2022-11-22T05:42:45.185Z,5.50
2022-11-22T05:45:13.102Z,5.40
2022-11-22T05:47:41.430Z,5.40
2022-11-22T05:50:10.170Z,5.40
2022-11-22T05:52:38.303Z,5.40
2022-11-22T05:55:08.767Z,5.50
2022-11-22T05:57:36.864Z,5.50
2022-11-22T06:00:05.848Z,5.50
2022-11-22T06:02:34.060Z,5.50
2022-11-22T06:05:02.097Z,5.50
2022-11-22T06:07:30.186Z,5.60
2022-11-22T06:09:58.213Z,5.50
2022-11-22T06:12:27.595Z,5.50
2022-11-22T06:14:55.618Z,5.50
2022-11-22T06:17:23.629Z,5.50
2022-11-22T06:19:51.978Z,5.50
2022-11-22T06:22:19.854Z,5.50
2022-11-22T06:24:47.840Z,5.50
2022-11-22T06:27:15.791Z,5.40
2022-11-22T06:29:45.288Z,5.40
2022-11-22T06:32:14.466Z,5.50
2022-11-22T06:34:42.873Z,5.50
2022-11-22T06:37:10.881Z,5.50
2022-11-22T06:39:39.271Z,5.50
2022-11-22T06:42:07.242Z,5.50
2022-11-22T06:44:35.232Z,5.50
2022-11-22T06:47:04.586Z,5.50
2022-11-22T06:49:33.585Z,5.50
2022-11-22T06:52:01.523Z,5.50
2022-11-22T06:54:29.462Z,5.50
2022-11-22T06:56:57.530Z,5.50
2022-11-22T06:59:25.530Z,5.50
2022-11-22T07:01:53.556Z,5.50
2022-11-22T07:04:23.282Z,5.50
2022-11-22T07:06:51.259Z,5.50
2022-11-22T07:09:19.235Z,5.60
2022-11-22T07:11:47.291Z,5.60
2022-11-22T07:14:15.299Z,5.60
2022-11-22T07:16:43.141Z,5.60
2022-11-22T07:19:11.309Z,5.50
2022-11-22T07:21:40.796Z,5.50
2022-11-22T07:24:09.659Z,5.50
2022-11-22T07:26:37.626Z,5.50
2022-11-22T07:29:05.882Z,5.60
2022-11-22T07:31:34.844Z,5.50
2022-11-22T07:34:02.929Z,5.60
2022-11-22T07:36:30.816Z,5.50
2022-11-22T07:39:00.759Z,5.50
2022-11-22T07:41:29.145Z,5.50
2022-11-22T07:43:57.313Z,5.50
2022-11-22T07:46:29.722Z,5.50
2022-11-22T07:48:58.162Z,5.50
2022-11-22T07:51:26.286Z,5.50
2022-11-22T07:53:55.677Z,5.50
2022-11-22T07:56:25.445Z,5.50
2022-11-22T07:58:53.496Z,5.50
2022-11-22T08:01:22.292Z,5.50
2022-11-22T08:03:50.343Z,5.50
2022-11-22T08:06:18.290Z,5.50
2022-11-22T08:08:46.726Z,5.40
2022-11-22T08:11:14.894Z,5.40
2022-11-22T08:13:44.989Z,5.40
2022-11-22T08:16:14.894Z,5.40
2022-11-22T08:18:46.591Z,5.50
2022-11-22T08:21:15.532Z,5.50
2022-11-22T08:23:44.303Z,5.50
2022-11-22T08:26:14.560Z,5.50
2022-11-22T08:28:44.731Z,5.60
2022-11-22T08:31:15.807Z,5.60
2022-11-22T08:33:43.977Z,5.60
2022-11-22T08:36:12.072Z,5.60
2022-11-22T08:38:40.307Z,5.60
2022-11-22T08:41:08.530Z,5.70
2022-11-22T08:43:36.655Z,5.70
2022-11-22T08:46:06.773Z,5.70
2022-11-22T08:48:36.772Z,5.70
2022-11-22T08:51:06.758Z,5.70
2022-11-22T08:53:35.854Z,5.70
2022-11-22T08:56:05.439Z,5.70
2022-11-22T08:58:35.029Z,5.80
2022-11-22T09:01:07.333Z,5.80
2022-11-22T09:03:36.295Z,5.80
2022-11-22T09:09:03.268Z,5.80
2022-11-22T09:11:41.996Z,5.80
2022-11-22T09:14:10.065Z,5.90
2022-11-22T09:16:47.520Z,5.90
2022-11-22T09:19:15.479Z,5.90
2022-11-22T09:21:46.778Z,5.90
2022-11-22T09:24:15.366Z,5.90
2022-11-22T09:26:43.453Z,6.00
2022-11-22T09:29:11.526Z,6.00
2022-11-22T09:31:43.113Z,6.00
2022-11-22T09:34:11.095Z,6.00
2022-11-22T09:36:39.194Z,6.10
2022-11-22T09:39:07.728Z,6.00
2022-11-22T09:42:05.121Z,6.10
2022-11-22T09:44:41.352Z,6.00
2022-11-22T09:47:20.740Z,6.10
2022-11-22T09:50:02.809Z,6.10
2022-11-22T09:52:35.969Z,6.10
2022-11-22T09:55:08.142Z,6.10
2022-11-22T09:57:42.962Z,6.00
2022-11-22T10:00:20.818Z,6.10
2022-11-22T10:03:00.928Z,6.00
2022-11-22T10:05:34.568Z,6.00
2022-11-22T10:08:08.736Z,6.00
2022-11-22T10:10:42.939Z,5.90
2022-11-22T10:13:19.129Z,5.90
2022-11-22T10:15:56.165Z,5.80
2022-11-22T10:18:35.581Z,5.80
2022-11-22T10:21:05.678Z,5.90
2022-11-22T10:23:34.042Z,5.80
2022-11-22T10:26:06.489Z,5.90
2022-11-22T10:28:36.868Z,5.90
2022-11-22T10:31:14.133Z,5.90
2022-11-22T10:33:48.521Z,5.90
2022-11-22T10:36:31.913Z,6.00
2022-11-22T10:39:22.453Z,6.00
2022-11-22T10:42:11.705Z,6.00
2022-11-22T10:44:51.174Z,6.00
2022-11-22T10:47:34.578Z,5.90
2022-11-22T10:50:07.398Z,5.90
2022-11-22T10:52:45.669Z,5.90
2022-11-22T10:55:24.633Z,5.90
2022-11-22T10:58:03.726Z,5.80
2022-11-22T11:00:37.337Z,5.80
2022-11-22T11:03:17.954Z,5.80
2022-11-22T11:06:24.096Z,5.90
2022-11-22T11:09:23.180Z,5.90
2022-11-22T11:11:31.942Z,5.90
2022-11-22T11:14:03.690Z,5.90
2022-11-22T11:16:36.820Z,5.90
2022-11-22T11:19:16.514Z,5.90
2022-11-22T11:21:46.085Z,5.80
2022-11-22T11:24:16.018Z,5.80
2022-11-22T11:26:45.530Z,5.70
2022-11-22T11:29:44.042Z,5.80
2022-11-22T11:32:14.424Z,5.80
2022-11-22T11:34:49.043Z,5.80
2022-11-22T11:37:33.519Z,5.90
2022-11-22T11:40:01.620Z,5.90
2022-11-22T11:42:31.622Z,5.80
2022-11-22T11:45:21.768Z,5.90
2022-11-22T11:47:49.712Z,5.90
2022-11-22T11:50:24.287Z,5.90
2022-11-22T11:52:56.293Z,6.00
2022-11-22T11:55:24.865Z,5.90
2022-11-22T11:57:54.625Z,5.90
2022-11-22T12:00:27.739Z,5.90
2022-11-22T12:03:01.550Z,5.80
2022-11-22T12:05:31.611Z,5.70
2022-11-22T12:08:02.121Z,5.70
2022-11-22T12:10:42.380Z,5.60
2022-11-22T12:13:18.978Z,5.70
2022-11-22T12:15:56.169Z,5.50
2022-11-22T12:18:40.474Z,5.50
2022-11-22T12:21:17.756Z,5.40
2022-11-22T12:23:52.712Z,5.40
2022-11-22T12:26:21.456Z,5.50
2022-11-22T12:28:49.878Z,5.50
2022-11-22T12:31:28.672Z,5.50
2022-11-22T12:33:59.522Z,5.60
2022-11-22T12:36:42.856Z,5.60
2022-11-22T12:39:15.917Z,5.60
2022-11-22T12:41:45.941Z,5.40
2022-11-22T12:44:17.842Z,5.50
2022-11-22T12:46:49.749Z,5.40
2022-11-22T12:49:26.866Z,5.40
2022-11-22T12:51:59.058Z,5.30
2022-11-22T12:54:34.220Z,5.40
2022-11-22T12:57:07.469Z,5.40
2022-11-22T12:59:42.706Z,5.40
2022-11-22T13:02:19.660Z,5.40
2022-11-22T13:04:53.444Z,5.40
2022-11-22T13:07:29.022Z,5.50
2022-11-22T13:10:04.645Z,5.50
2022-11-22T13:12:37.381Z,5.50
2022-11-22T13:15:06.703Z,5.50
2022-11-22T13:17:38.728Z,5.50
2022-11-22T13:20:10.929Z,5.50
2022-11-22T13:22:54.533Z,5.50
2022-11-22T13:25:44.413Z,5.50
2022-11-22T13:28:15.197Z,5.50
2022-11-22T13:31:17.492Z,5.40
2022-11-22T13:33:55.670Z,5.50
2022-11-22T13:36:26.074Z,5.60
2022-11-22T13:38:55.987Z,5.50
2022-11-22T13:41:30.003Z,5.60
2022-11-22T13:43:59.854Z,5.60
2022-11-22T13:47:00.552Z,5.50
2022-11-22T13:49:41.243Z,5.60
2022-11-22T13:52:34.850Z,5.60
2022-11-22T13:55:28.101Z,5.70
2022-11-22T13:57:57.669Z,5.60
2022-11-22T14:00:46.712Z,5.60
2022-11-22T14:03:37.313Z,5.60
2022-11-22T14:06:32.354Z,5.60
2022-11-22T14:09:17.794Z,5.60
2022-11-22T14:11:58.418Z,5.60
2022-11-22T14:14:34.882Z,5.60
2022-11-22T14:17:17.639Z,5.60
2022-11-22T14:20:03.837Z,5.60
2022-11-22T14:22:50.472Z,5.50
2022-11-22T14:25:42.963Z,5.60
2022-11-22T14:28:36.131Z,5.60
2022-11-22T14:31:24.264Z,5.50
2022-11-22T14:34:22.203Z,5.50
2022-11-22T14:37:24.481Z,5.50
2022-11-22T14:40:17.579Z,5.50
2022-11-22T14:42:55.150Z,5.50
2022-11-22T14:45:28.226Z,5.50
2022-11-22T14:48:12.799Z,5.50
2022-11-22T14:50:45.439Z,5.50
2022-11-22T14:53:31.368Z,5.50
2022-11-22T14:56:09.454Z,5.40
2022-11-22T14:59:00.193Z,5.40
2022-11-22T15:02:07.710Z,5.40
2022-11-22T15:09:13.165Z,5.40
2022-11-22T15:09:16.586Z,5.30
2022-11-22T15:11:21.594Z,5.30
2022-11-22T15:14:06.548Z,5.40
2022-11-22T15:57:34.130Z,5.20
2022-11-22T16:00:03.875Z,5.20
2022-11-22T16:02:33.179Z,5.20
2022-11-22T16:06:06.517Z,5.20
2022-11-22T16:07:52.523Z,5.30
2022-11-22T16:10:25.698Z,5.20
2022-11-22T16:12:55.426Z,5.20
2022-11-22T16:15:30.370Z,5.20
2022-11-22T16:18:08.715Z,5.10
2022-11-22T16:20:37.587Z,5.10
2022-11-22T16:23:25.225Z,5.10
2022-11-22T16:25:57.487Z,5.10
2022-11-22T16:28:34.711Z,5.10
2022-11-22T16:31:06.349Z,5.10
2022-11-22T16:33:34.508Z,5.10
2022-11-22T16:36:03.012Z,5.10
2022-11-22T16:38:36.608Z,5.20
2022-11-22T16:41:06.132Z,5.20
2022-11-22T16:43:36.309Z,5.20
2022-11-22T16:46:05.044Z,5.20
2022-11-22T16:48:33.850Z,5.10
2022-11-22T16:51:06.051Z,5.10
2022-11-22T16:53:43.552Z,5.10
2022-11-22T16:56:18.228Z,5.10
2022-11-22T16:58:48.180Z,5.10
2022-11-22T17:01:17.720Z,5.00
2022-11-22T17:03:47.418Z,5.00
2022-11-22T17:06:19.009Z,5.00
2022-11-22T17:08:47.559Z,5.00
2022-11-22T17:11:18.800Z,4.90
2022-11-22T17:13:48.737Z,4.90
2022-11-22T17:16:18.178Z,4.90
2022-11-22T17:18:51.410Z,4.90
2022-11-22T17:21:25.844Z,4.90
2022-11-22T17:23:55.401Z,4.90
2022-11-22T17:26:23.590Z,4.90
2022-11-22T17:28:53.133Z,5.00
2022-11-22T17:31:23.135Z,4.90
2022-11-22T17:33:52.047Z,4.90
2022-11-22T17:36:24.185Z,4.90
2022-11-22T17:39:02.191Z,4.90
2022-11-22T17:41:30.529Z,4.90
2022-11-22T17:43:59.965Z,4.90
2022-11-22T17:46:28.109Z,4.90
2022-11-22T17:49:00.140Z,4.90
2022-11-22T17:51:29.107Z,4.90
2022-11-22T17:53:58.307Z,4.90
2022-11-22T17:56:27.177Z,4.90
2022-11-22T17:58:55.174Z,4.90
2022-11-22T18:01:24.739Z,4.90
2022-11-22T18:03:53.134Z,4.90
2022-11-22T18:06:25.029Z,4.90
2022-11-22T18:08:54.258Z,4.90
2022-11-22T18:11:22.293Z,4.90
2022-11-22T18:13:50.413Z,4.90
2022-11-22T18:16:18.470Z,5.00
2022-11-22T18:18:56.772Z,4.90
2022-11-22T18:21:29.272Z,4.90
2022-11-22T18:23:58.818Z,4.90
2022-11-22T18:26:43.018Z,4.90
2022-11-22T18:32:01.132Z,4.90
2022-11-22T18:34:31.769Z,4.90
2022-11-22T18:37:03.613Z,4.90
2022-11-22T18:39:34.686Z,4.90
2022-11-22T18:42:03.128Z,4.90
2022-11-22T18:44:31.164Z,4.90
2022-11-22T18:46:59.038Z,4.90
2022-11-22T18:49:27.234Z,4.90
2022-11-22T18:51:56.984Z,4.90
2022-11-22T18:54:26.237Z,4.90
2022-11-22T18:56:59.951Z,4.80
2022-11-22T18:59:28.152Z,4.80
2022-11-22T19:01:59.764Z,4.80
2022-11-22T19:04:27.913Z,4.70
2022-11-22T19:07:04.614Z,4.70
2022-11-22T19:09:33.369Z,4.70
2022-11-22T19:12:07.465Z,4.60
2022-11-22T19:14:35.739Z,4.60
2022-11-22T19:17:04.191Z,4.60
2022-11-22T19:19:32.859Z,4.60
2022-11-22T19:22:03.217Z,4.50
2022-11-22T19:24:31.692Z,4.50
2022-11-22T19:27:00.054Z,4.50
2022-11-22T19:29:29.446Z,4.40
2022-11-22T19:31:57.706Z,4.40
2022-11-22T19:34:28.375Z,4.30
2022-11-22T19:37:03.660Z,4.30
2022-11-22T19:39:32.623Z,4.30
2022-11-22T19:42:00.905Z,4.30
2022-11-22T19:44:29.368Z,4.30
2022-11-22T19:47:03.887Z,4.20
2022-11-22T19:49:32.117Z,4.30
2022-11-22T19:52:00.462Z,4.20
2022-11-22T19:54:29.831Z,4.30
2022-11-22T19:56:57.808Z,4.30
2022-11-22T19:59:26.057Z,4.30
2022-11-22T20:01:54.129Z,4.30
2022-11-22T20:04:27.831Z,4.30
2022-11-22T20:06:55.867Z,4.30
2022-11-22T20:09:24.309Z,4.30
2022-11-22T20:11:53.855Z,4.30
2022-11-22T20:14:23.190Z,4.40
2022-11-22T20:16:51.355Z,4.40
2022-11-22T20:19:19.389Z,4.40
2022-11-22T20:21:49.475Z,4.40
2022-11-22T20:24:23.721Z,4.40
2022-11-22T20:26:56.636Z,4.50
2022-11-22T20:29:25.078Z,4.50
2022-11-22T20:31:53.329Z,4.40
2022-11-22T20:34:21.820Z,4.50
2022-11-22T20:36:49.894Z,4.50
2022-11-22T20:39:26.950Z,4.50
2022-11-22T20:42:31.932Z,4.40
2022-11-22T20:44:47.650Z,4.40
2022-11-22T20:47:15.789Z,4.40
2022-11-22T20:49:45.702Z,4.30
2022-11-22T20:52:13.985Z,4.30
2022-11-22T20:54:49.411Z,4.40
2022-11-22T20:57:19.095Z,4.40
2022-11-22T20:59:47.261Z,4.40
2022-11-22T21:02:15.305Z,4.40
2022-11-22T21:04:43.473Z,4.30
2022-11-22T21:07:12.125Z,4.40
2022-11-22T21:09:46.158Z,4.40
2022-11-22T21:12:14.185Z,4.40
2022-11-22T21:14:48.424Z,4.50
2022-11-22T21:17:39.704Z,4.60
2022-11-22T21:20:07.209Z,4.50
2022-11-22T21:22:35.325Z,4.50
2022-11-22T21:25:03.500Z,4.50
2022-11-22T21:27:31.620Z,4.50
2022-11-22T21:30:00.996Z,4.50
2022-11-22T21:32:36.355Z,4.50
2022-11-22T21:35:05.114Z,4.50
2022-11-22T21:37:33.581Z,4.50
2022-11-22T21:40:01.676Z,4.50
2022-11-22T21:42:29.788Z,4.50
2022-11-22T21:44:57.917Z,4.60
2022-11-22T21:47:27.292Z,4.60
2022-11-22T21:49:55.606Z,4.60
2022-11-22T21:52:25.210Z,4.60
2022-11-22T21:54:54.436Z,4.50
2022-11-22T21:57:22.498Z,4.60
2022-11-22T21:59:50.395Z,4.60
2022-11-22T22:02:18.941Z,4.50
2022-11-22T22:04:48.382Z,4.60
2022-11-22T22:07:36.778Z,4.60
2022-11-22T22:10:05.287Z,4.60
2022-11-22T22:12:33.418Z,4.50
2022-11-22T22:15:01.586Z,4.50
2022-11-22T22:17:31.327Z,4.50
2022-11-22T22:23:15.694Z,4.50
2022-11-22T22:25:45.908Z,4.60
2022-11-22T22:28:15.149Z,4.70
2022-11-22T22:30:43.351Z,4.70
2022-11-22T22:33:11.543Z,4.70
2022-11-22T22:35:48.288Z,4.70
2022-11-22T22:38:16.360Z,4.80
2022-11-22T22:40:44.968Z,4.80
2022-11-22T22:43:13.090Z,4.90
2022-11-22T22:45:48.749Z,4.80
2022-11-22T22:48:16.850Z,4.90
2022-11-22T22:50:46.640Z,4.90
2022-11-22T22:53:14.686Z,4.90
2022-11-22T22:55:53.952Z,5.00
2022-11-22T22:58:22.157Z,5.00
2022-11-22T23:00:50.279Z,4.90
2022-11-22T23:03:18.315Z,4.90
2022-11-22T23:05:47.809Z,4.90
2022-11-22T23:08:16.027Z,5.00
2022-11-22T23:10:44.297Z,5.00
2022-11-22T23:13:12.496Z,5.00
2022-11-22T23:15:58.026Z,5.00
2022-11-22T23:18:26.778Z,5.10
2022-11-22T23:21:44.668Z,5.10
2022-11-22T23:24:14.842Z,5.10
2022-11-22T23:26:42.973Z,5.00
2022-11-22T23:29:11.239Z,5.10
2022-11-22T23:31:39.353Z,5.10
2022-11-22T23:34:07.517Z,5.00
2022-11-22T23:36:40.656Z,5.10
2022-11-22T23:39:10.053Z,5.00
2022-11-22T23:41:38.222Z,5.00
2022-11-22T23:44:06.734Z,5.00
2022-11-22T23:46:34.909Z,5.10
2022-11-22T23:49:04.142Z,5.10
2022-11-22T23:51:33.959Z,5.10
2022-11-22T23:54:05.853Z,5.10
2022-11-22T23:56:35.375Z,5.10
2022-11-22T23:59:08.767Z,5.10
